createdAt,value
2019-02-23T00:03:58.730Z,8.20
2019-02-23T00:06:40.810Z,8.20
2019-02-23T00:09:23.098Z,8.20
2019-02-23T00:12:05.238Z,8.10
2019-02-23T00:14:47.108Z,8.00
2019-02-23T00:17:29.262Z,8.00
2019-02-23T00:20:18.588Z,8.10
2019-02-23T00:23:04.799Z,8.00
2019-02-23T00:25:47.034Z,8.10
2019-02-23T00:28:29.468Z,7.90
2019-02-23T00:31:11.780Z,7.90
2019-02-23T00:33:53.918Z,7.80
2019-02-23T00:36:35.817Z,7.80
2019-02-23T00:39:36.894Z,7.80
2019-02-23T00:42:22.953Z,7.90
2019-02-23T00:47:54.079Z,7.70
2019-02-23T00:50:42.036Z,7.70
2019-02-23T00:53:23.946Z,7.70
2019-02-23T00:55:54.223Z,7.70
2019-02-23T01:01:44.750Z,7.50
2019-02-23T01:04:26.691Z,7.50
2019-02-23T01:07:08.539Z,7.50
2019-02-23T01:09:50.415Z,7.40
2019-02-23T01:12:20.718Z,7.50
2019-02-23T01:15:04.339Z,7.40
2019-02-23T01:17:46.689Z,7.30
2019-02-23T01:20:28.682Z,7.30
2019-02-23T01:23:10.964Z,7.30
2019-02-23T01:25:52.848Z,7.30
2019-02-23T01:28:35.218Z,7.20
2019-02-23T01:31:17.236Z,7.30
2019-02-23T01:37:24.678Z,7.30
2019-02-23T01:40:06.727Z,7.30
2019-02-23T01:42:48.828Z,7.30
2019-02-23T01:45:30.379Z,7.30
2019-02-23T01:48:12.200Z,7.30
2019-02-23T01:50:53.937Z,7.20
2019-02-23T01:53:36.628Z,7.20
2019-02-23T01:59:25.316Z,7.10
2019-02-23T02:02:07.514Z,7.10
2019-02-23T02:04:49.542Z,7.20
2019-02-23T02:07:32.664Z,7.20
2019-02-23T02:10:15.037Z,7.20
2019-02-23T02:12:57.009Z,7.20
2019-02-23T02:15:39.125Z,7.30
2019-02-23T02:18:21.247Z,7.30
2019-02-23T02:21:03.657Z,7.30
2019-02-23T02:23:45.753Z,7.20
2019-02-23T02:26:28.083Z,7.20
2019-02-23T02:29:10.301Z,7.40
2019-02-23T02:31:52.484Z,7.30
2019-02-23T02:34:34.650Z,7.20
2019-02-23T02:37:16.839Z,7.30
2019-02-23T02:39:59.150Z,7.20
2019-02-23T02:42:41.309Z,7.20
2019-02-23T02:45:23.270Z,7.20
2019-02-23T02:47:53.540Z,7.30
2019-02-23T02:50:35.801Z,7.40
2019-02-23T02:53:18.012Z,7.50
2019-02-23T02:56:00.233Z,7.40
2019-02-23T02:58:42.323Z,7.40
2019-02-23T03:01:24.541Z,7.30
2019-02-23T03:04:06.729Z,7.30
2019-02-23T03:06:48.822Z,7.30
2019-02-23T03:09:31.249Z,7.30
2019-02-23T03:12:13.368Z,7.30
2019-02-23T03:14:55.827Z,7.40
2019-02-23T03:17:37.911Z,7.40
2019-02-23T03:20:19.918Z,7.30
2019-02-23T03:23:02.219Z,7.30
2019-02-23T03:28:52.368Z,7.20
2019-02-23T03:34:47.528Z,7.10
2019-02-23T03:37:29.523Z,6.90
2019-02-23T03:40:11.588Z,6.80
2019-02-23T03:42:53.407Z,6.80
2019-02-23T03:45:35.426Z,6.70
2019-02-23T03:48:17.327Z,6.70
2019-02-23T03:50:59.361Z,6.70
2019-02-23T03:53:41.290Z,6.60
2019-02-23T03:56:23.054Z,6.60
2019-02-23T03:59:05.085Z,6.60
2019-02-23T04:01:47.326Z,6.50
2019-02-23T04:04:29.531Z,6.50
2019-02-23T04:07:11.777Z,6.50
2019-02-23T04:09:54.218Z,6.50
2019-02-23T04:12:36.191Z,6.40
2019-02-23T04:15:21.532Z,6.40
2019-02-23T04:18:03.718Z,6.40
2019-02-23T04:20:45.706Z,6.40
2019-02-23T04:23:27.587Z,6.50
2019-02-23T04:26:09.652Z,6.40
2019-02-23T04:31:59.044Z,6.50
2019-02-23T04:34:41.151Z,6.50
2019-02-23T04:37:23.749Z,6.50
2019-02-23T04:40:05.390Z,6.40
2019-02-23T04:46:12.830Z,6.40
2019-02-23T04:48:55.503Z,6.20
2019-02-23T04:51:37.932Z,6.20
2019-02-23T04:54:20.661Z,6.10
2019-02-23T04:57:03.042Z,6.10
2019-02-23T04:59:45.177Z,6.10
2019-02-23T05:02:27.576Z,6.10
2019-02-23T05:05:09.522Z,6.10
2019-02-23T05:07:51.763Z,6.10
2019-02-23T05:10:33.989Z,6.00
2019-02-23T05:16:24.803Z,6.00
2019-02-23T05:19:06.364Z,5.80
2019-02-23T05:21:48.580Z,5.80
2019-02-23T05:24:30.398Z,5.80
2019-02-23T05:27:15.750Z,5.80
2019-02-23T05:29:57.718Z,5.80
2019-02-23T05:32:39.865Z,5.70
2019-02-23T05:35:21.614Z,5.70
2019-02-23T05:38:03.499Z,5.70
2019-02-23T05:40:45.441Z,5.70
2019-02-23T05:43:27.189Z,5.70
2019-02-23T05:46:08.956Z,5.60
2019-02-23T05:48:50.974Z,5.70
2019-02-23T05:51:38.708Z,5.60
2019-02-23T05:54:14.882Z,5.60
2019-02-23T05:56:56.893Z,5.60
2019-02-23T05:59:38.974Z,5.50
2019-02-23T06:02:21.114Z,5.40
2019-02-23T06:05:03.566Z,5.50
2019-02-23T06:10:59.305Z,5.40
2019-02-23T06:13:41.361Z,5.40
2019-02-23T06:16:23.345Z,5.40
2019-02-23T06:19:05.342Z,5.30
2019-02-23T06:21:53.629Z,5.30
2019-02-23T06:24:31.079Z,5.30
2019-02-23T06:27:13.125Z,5.30
2019-02-23T06:29:55.315Z,5.30
2019-02-23T06:32:37.524Z,5.30
2019-02-23T06:35:19.777Z,5.30
2019-02-23T06:37:53.363Z,5.40
2019-02-23T06:41:02.353Z,5.40
2019-02-23T06:43:44.439Z,5.50
2019-02-23T06:46:26.597Z,5.50
2019-02-23T06:49:08.281Z,5.50
2019-02-23T06:51:50.514Z,5.50
2019-02-23T06:57:55.301Z,5.50
2019-02-23T07:00:37.729Z,5.50
2019-02-23T07:03:08.190Z,5.50
2019-02-23T07:05:58.824Z,5.60
2019-02-23T07:08:42.287Z,5.60
2019-02-23T07:11:24.824Z,5.60
2019-02-23T07:14:07.837Z,5.60
2019-02-23T07:16:50.056Z,5.50
2019-02-23T07:19:31.851Z,5.50
2019-02-23T07:22:15.720Z,5.50
2019-02-23T07:24:57.758Z,5.60
2019-02-23T07:27:39.645Z,5.60
2019-02-23T07:30:21.154Z,5.70
2019-02-23T07:33:03.036Z,5.70
2019-02-23T07:35:44.986Z,5.60
2019-02-23T07:38:26.662Z,5.70
2019-02-23T07:41:08.726Z,5.70
2019-02-23T07:43:51.958Z,5.70
2019-02-23T07:46:34.115Z,5.60
2019-02-23T07:49:16.638Z,5.60
2019-02-23T07:52:04.780Z,5.80
2019-02-23T07:54:46.969Z,5.80
2019-02-23T07:57:35.164Z,5.80
2019-02-23T08:00:05.673Z,5.90
2019-02-23T08:02:48.440Z,5.80
2019-02-23T08:05:30.509Z,5.90
2019-02-23T08:08:12.601Z,5.90
2019-02-23T08:10:55.150Z,6.00
2019-02-23T08:13:40.610Z,5.90
2019-02-23T08:16:21.416Z,5.80
2019-02-23T08:19:03.898Z,5.80
2019-02-23T08:21:46.190Z,6.00
2019-02-23T08:24:28.334Z,6.10
2019-02-23T08:27:10.109Z,6.00
2019-02-23T08:29:52.017Z,6.00
2019-02-23T08:32:34.555Z,6.10
2019-02-23T08:35:16.701Z,6.10
2019-02-23T08:37:58.470Z,6.20
2019-02-23T08:44:05.540Z,6.30
2019-02-23T08:46:47.689Z,6.30
2019-02-23T08:49:31.161Z,6.30
2019-02-23T08:52:13.118Z,6.30
2019-02-23T08:54:55.651Z,6.20
2019-02-23T08:57:37.650Z,6.30
2019-02-23T09:00:19.949Z,6.20
2019-02-23T09:03:02.263Z,6.30
2019-02-23T09:05:34.548Z,6.20
2019-02-23T09:08:24.240Z,6.30
2019-02-23T09:11:06.602Z,6.30
2019-02-23T09:13:48.851Z,6.40
2019-02-23T09:16:31.577Z,6.40
2019-02-23T09:19:14.247Z,6.40
2019-02-23T09:25:06.277Z,6.40
2019-02-23T09:27:48.449Z,6.60
2019-02-23T09:30:31.827Z,6.60
2019-02-23T09:33:14.621Z,6.70
2019-02-23T09:35:58.394Z,6.70
2019-02-23T09:38:41.708Z,6.70
2019-02-23T09:41:23.970Z,6.80
2019-02-23T09:44:06.139Z,6.90
2019-02-23T09:46:48.027Z,7.00
2019-02-23T09:49:30.034Z,7.10
2019-02-23T09:52:12.068Z,7.20
2019-02-23T09:54:55.229Z,7.00
2019-02-23T09:57:37.311Z,6.90
2019-02-23T10:00:19.479Z,7.00
2019-02-23T10:03:02.133Z,7.00
2019-02-23T10:05:44.509Z,7.20
2019-02-23T10:08:27.063Z,7.20
2019-02-23T10:11:09.193Z,7.20
2019-02-23T10:13:50.891Z,7.20
2019-02-23T10:16:32.777Z,7.30
2019-02-23T10:19:03.043Z,7.40
2019-02-23T10:21:52.397Z,7.50
2019-02-23T10:24:36.192Z,7.50
2019-02-23T10:27:18.807Z,7.50
2019-02-23T10:30:00.810Z,7.70
2019-02-23T10:32:44.467Z,7.80
2019-02-23T10:35:26.546Z,7.80
2019-02-23T10:38:10.668Z,8.00
2019-02-23T10:40:56.294Z,8.10
2019-02-23T10:43:42.456Z,8.20
2019-02-23T10:46:28.644Z,8.30
2019-02-23T10:49:11.691Z,8.30
2019-02-23T10:51:54.434Z,8.30
2019-02-23T10:54:36.186Z,8.30
2019-02-23T10:57:18.269Z,8.30
2019-02-23T11:00:00.254Z,8.40
2019-02-23T11:05:50.935Z,8.50
2019-02-23T11:08:33.188Z,8.60
2019-02-23T11:11:17.234Z,8.60
2019-02-23T11:13:59.736Z,8.60
2019-02-23T11:16:43.046Z,8.60
2019-02-23T11:19:25.626Z,8.60
2019-02-23T11:22:09.085Z,8.60
2019-02-23T11:24:50.755Z,8.60
2019-02-23T11:27:32.990Z,8.80
2019-02-23T11:30:15.333Z,8.80
2019-02-23T11:32:57.406Z,8.90
2019-02-23T11:35:39.905Z,8.90
2019-02-23T11:38:22.871Z,8.90
2019-02-23T11:41:04.886Z,8.90
2019-02-23T11:43:46.791Z,9.00
2019-02-23T11:46:30.847Z,9.10
2019-02-23T11:49:14.855Z,9.10
2019-02-23T11:51:57.146Z,9.10
2019-02-23T11:58:07.767Z,9.30
2019-02-23T12:00:50.014Z,9.40
2019-02-23T12:03:31.958Z,9.60
2019-02-23T12:06:14.359Z,9.50
2019-02-23T12:08:57.421Z,9.60
2019-02-23T12:11:39.809Z,9.60
2019-02-23T12:17:30.389Z,9.70
2019-02-23T12:20:12.558Z,9.90
2019-02-23T12:23:13.738Z,10.00
2019-02-23T12:25:55.789Z,10.10
2019-02-23T12:28:37.681Z,10.10
2019-02-23T12:31:19.870Z,9.90
2019-02-23T12:34:02.010Z,10.10
2019-02-23T12:36:44.399Z,10.20
2019-02-23T12:42:33.625Z,10.40
2019-02-23T12:45:15.510Z,10.40
2019-02-23T12:47:57.634Z,10.60
2019-02-23T12:54:05.174Z,10.60
2019-02-23T12:56:48.084Z,10.40
2019-02-23T12:59:30.304Z,10.40
2019-02-23T13:02:12.435Z,10.60
2019-02-23T13:04:54.552Z,10.60
2019-02-23T13:07:55.667Z,10.50
2019-02-23T13:10:37.302Z,10.70
2019-02-23T13:13:38.916Z,10.80
2019-02-23T13:16:21.277Z,10.80
2019-02-23T13:22:28.222Z,10.90
2019-02-23T13:25:10.197Z,10.90
2019-02-23T13:28:10.991Z,11.00
2019-02-23T13:30:52.994Z,10.90
2019-02-23T13:33:34.813Z,11.00
2019-02-23T13:39:30.038Z,11.20
2019-02-23T13:42:11.981Z,11.10
2019-02-23T13:44:54.159Z,11.30
2019-02-23T13:47:35.762Z,11.40
2019-02-23T13:50:28.420Z,11.50
2019-02-23T13:53:10.525Z,11.40
2019-02-23T13:55:53.657Z,11.40
2019-02-23T14:01:42.978Z,11.50
2019-02-23T14:07:51.381Z,11.40
2019-02-23T14:10:33.609Z,11.50
2019-02-23T14:13:15.672Z,11.50
2019-02-23T14:15:57.578Z,11.60
2019-02-23T14:18:39.496Z,11.80
2019-02-23T14:21:21.356Z,11.70
2019-02-23T14:24:02.979Z,11.80
2019-02-23T14:26:45.169Z,11.80
2019-02-23T14:29:27.261Z,11.80
2019-02-23T14:32:09.250Z,12.00
2019-02-23T14:34:51.439Z,12.10
2019-02-23T14:37:33.557Z,12.60
2019-02-23T14:40:15.621Z,13.30
2019-02-23T14:42:57.615Z,13.40
2019-02-23T14:45:39.460Z,13.80
2019-02-23T14:48:21.177Z,14.70
2019-02-23T14:51:03.031Z,15.10
2019-02-23T14:53:44.866Z,15.30
2019-02-23T14:56:26.869Z,15.60
2019-02-23T14:59:10.908Z,16.00
2019-02-23T15:01:52.831Z,16.40
2019-02-23T15:04:36.386Z,16.50
2019-02-23T15:07:18.609Z,16.20
2019-02-23T15:10:00.739Z,16.30
2019-02-23T15:12:42.662Z,16.50
2019-02-23T15:15:24.534Z,16.70
2019-02-23T15:18:06.654Z,16.40
2019-02-23T15:20:48.617Z,16.20
2019-02-23T15:23:31.559Z,15.60
2019-02-23T15:26:13.487Z,15.30
2019-02-23T15:28:55.617Z,14.70
2019-02-23T15:31:37.236Z,14.00
2019-02-23T15:34:19.525Z,13.80
2019-02-23T15:37:01.588Z,13.30
2019-02-23T15:39:43.606Z,12.90
2019-02-23T15:42:25.561Z,12.80
2019-02-23T15:45:07.781Z,12.50
2019-02-23T15:47:50.255Z,12.10
2019-02-23T15:50:32.668Z,12.00
2019-02-23T15:53:15.072Z,11.80
2019-02-23T15:55:57.449Z,11.70
2019-02-23T15:58:39.284Z,11.80
2019-02-23T16:01:21.500Z,11.60
2019-02-23T16:04:03.448Z,11.40
2019-02-23T16:06:45.470Z,11.30
2019-02-23T16:09:27.853Z,11.20
2019-02-23T16:12:10.152Z,11.10
2019-02-23T16:14:53.566Z,11.00
2019-02-23T16:17:35.915Z,11.00
2019-02-23T16:20:17.881Z,10.80
2019-02-23T16:23:00.118Z,10.70
2019-02-23T16:25:42.409Z,10.60
2019-02-23T16:28:24.311Z,10.40
2019-02-23T16:31:06.553Z,10.30
2019-02-23T16:33:48.613Z,10.30
2019-02-23T16:36:30.664Z,10.30
2019-02-23T16:39:12.407Z,10.20
2019-02-23T16:41:54.229Z,10.10
2019-02-23T16:44:37.356Z,10.00
2019-02-23T16:47:17.741Z,10.00
2019-02-23T16:49:59.682Z,9.90
2019-02-23T16:52:41.795Z,9.80
2019-02-23T16:55:24.053Z,9.70
2019-02-23T16:58:06.179Z,9.70
2019-02-23T17:00:48.167Z,9.60
2019-02-23T17:03:30.210Z,9.50
2019-02-23T17:06:12.396Z,9.50
2019-02-23T17:08:54.615Z,9.50
2019-02-23T17:11:36.690Z,9.50
2019-02-23T17:14:18.811Z,9.30
2019-02-23T17:17:01.117Z,9.30
2019-02-23T17:19:43.166Z,9.20
2019-02-23T17:22:25.362Z,9.30
2019-02-23T17:25:07.676Z,9.20
2019-02-23T17:27:49.798Z,9.10
2019-02-23T17:30:32.307Z,9.10
2019-02-23T17:33:14.373Z,9.00
2019-02-23T17:35:54.818Z,9.00
2019-02-23T17:38:38.101Z,9.00
2019-02-23T17:41:20.094Z,8.90
2019-02-23T17:44:02.279Z,8.90
2019-02-23T17:46:44.529Z,8.80
2019-02-23T17:49:26.784Z,8.70
2019-02-23T17:52:08.846Z,8.70
2019-02-23T17:54:51.182Z,8.70
2019-02-23T17:57:33.252Z,8.60
2019-02-23T18:00:17.683Z,8.60
2019-02-23T18:06:24.158Z,8.60
2019-02-23T18:09:06.212Z,8.40
2019-02-23T18:11:49.930Z,8.40
2019-02-23T18:14:31.879Z,8.40
2019-02-23T18:17:13.825Z,8.40
2019-02-23T18:19:56.194Z,8.40
2019-02-23T18:22:37.915Z,8.30
2019-02-23T18:25:19.963Z,8.30
2019-02-23T18:28:01.813Z,8.20
2019-02-23T18:30:43.976Z,8.20
2019-02-23T18:33:25.942Z,8.20
2019-02-23T18:36:07.790Z,8.20
2019-02-23T18:38:49.654Z,8.10
2019-02-23T18:41:31.733Z,8.20
2019-02-23T18:44:14.279Z,8.10
2019-02-23T18:46:56.564Z,8.10
2019-02-23T18:49:39.417Z,8.00
2019-02-23T18:52:21.666Z,8.00
2019-02-23T18:57:53.315Z,7.90
2019-02-23T19:00:35.291Z,7.80
2019-02-23T19:03:16.902Z,7.80
2019-02-23T19:05:58.731Z,7.80
2019-02-23T19:08:40.837Z,7.80
2019-02-23T19:11:22.642Z,7.70
2019-02-23T19:14:04.616Z,7.60
2019-02-23T19:16:46.733Z,7.80
2019-02-23T19:19:28.985Z,7.70
2019-02-23T19:22:10.745Z,7.70
2019-02-23T19:24:53.033Z,7.60
2019-02-23T19:27:35.851Z,7.60
2019-02-23T19:30:17.837Z,7.60
2019-02-23T19:32:59.611Z,7.60
2019-02-23T19:35:41.646Z,7.60
2019-02-23T19:38:23.672Z,7.50
2019-02-23T19:41:05.974Z,7.50
2019-02-23T19:43:47.737Z,7.50
2019-02-23T19:46:29.793Z,7.60
2019-02-23T19:49:12.072Z,7.40
2019-02-23T19:51:56.575Z,7.40
2019-02-23T19:54:37.965Z,7.50
2019-02-23T19:57:08.340Z,7.50
2019-02-23T19:59:49.925Z,7.40
2019-02-23T20:02:32.631Z,7.40
2019-02-23T20:05:15.758Z,7.40
2019-02-23T20:07:58.358Z,7.40
2019-02-23T20:10:40.482Z,7.30
2019-02-23T20:13:22.337Z,7.30
2019-02-23T20:16:10.208Z,7.20
2019-02-23T20:21:49.600Z,7.30
2019-02-23T20:24:31.494Z,7.30
2019-02-23T20:27:13.299Z,7.20
2019-02-23T20:29:55.985Z,7.20
2019-02-23T20:35:27.643Z,7.10
2019-02-23T20:38:16.517Z,7.10
2019-02-23T20:40:59.304Z,7.20
2019-02-23T20:43:45.461Z,7.10
2019-02-23T20:46:28.059Z,7.00
2019-02-23T20:49:12.078Z,7.10
2019-02-23T20:51:58.587Z,7.00
2019-02-23T20:55:04.958Z,7.10
2019-02-23T20:57:42.709Z,7.10
2019-02-23T21:03:09.394Z,7.00
2019-02-23T21:05:51.423Z,7.00
2019-02-23T21:08:33.510Z,7.00
2019-02-23T21:11:15.411Z,7.00
2019-02-23T21:13:59.327Z,7.00
2019-02-23T21:16:41.084Z,7.00
2019-02-23T21:19:23.301Z,7.00
2019-02-23T21:22:05.517Z,6.90
2019-02-23T21:25:13.583Z,6.80
2019-02-23T21:27:55.375Z,6.70
2019-02-23T21:30:25.773Z,6.70
2019-02-23T21:33:16.164Z,6.70
2019-02-23T21:35:58.167Z,6.60
2019-02-23T21:38:40.350Z,6.40
2019-02-23T21:41:10.889Z,6.40
2019-02-23T21:44:00.242Z,6.40
2019-02-23T21:46:42.317Z,6.50
2019-02-23T21:49:24.565Z,6.50
2019-02-23T21:52:07.201Z,6.60
